Time;durP1;ratioP1;P1;durP2;ratioP2;P2;SDS_P1;SDS_P2;PMS_P1;PMS_P2;Temp;Humidity;BMP_temperature;BMP_pressure;BME280_temperature;BME280_humidity;BME280_pressure;Samples;Min_cycle;Max_cycle;Signal;HPM_P1;HPM_P2
2024/01/01 00:02:00;;;;;;;37.37;25.43;;;7.40;99.90;;;;;;4975185;28;20517;-66
2024/01/01 00:04:29;;;;;;;29.60;24.10;;;7.50;99.90;;;;;;4976863;28;20531;-63
2024/01/01 00:06:56;;;;;;;31.40;25.53;;;7.50;99.90;;;;;;4977223;28;20433;-64
2024/01/01 00:09:24;;;;;;;35.17;25.77;;;7.50;99.90;;;;;;4978192;28;20534;-63
2024/01/01 00:11:52;;;;;;;33.60;26.77;;;7.50;99.90;;;;;;4978645;28;20461;-65
2024/01/01 00:14:20;;;;;;;40.93;27.80;;;7.50;99.90;;;;;;4978922;28;20497;-65
2024/01/01 00:16:49;;;;;;;37.13;27.53;;;7.50;99.90;;;;;;4977215;28;20493;-64
2024/01/01 00:19:17;;;;;;;41.30;30.93;;;7.50;99.90;;;;;;4977564;28;20461;-64
2024/01/01 00:21:44;;;;;;;40.63;31.77;;;7.60;99.90;;;;;;4978662;28;20461;-64
2024/01/01 00:24:11;;;;;;;46.43;34.20;;;7.50;1.00;;;;;;5008166;28;20541;-63
2024/01/01 00:26:38;;;;;;;43.90;31.90;;;7.60;99.90;;;;;;5020847;28;20507;-64
2024/01/01 00:29:09;;;;;;;38.10;30.30;;;7.60;99.90;;;;;;5020198;28;20453;-64
2024/01/01 00:31:37;;;;;;;46.67;33.67;;;7.50;99.90;;;;;;5020838;28;20463;-63
2024/01/01 00:34:07;;;;;;;43.37;33.57;;;7.50;99.90;;;;;;5019874;28;20842;-63
2024/01/01 00:36:35;;;;;;;40.33;32.13;;;7.50;99.90;;;;;;5018920;28;20460;-64
2024/01/01 00:39:02;;;;;;;33.03;27.13;;;7.50;99.90;;;;;;5019290;28;20495;-65
2024/01/01 00:41:29;;;;;;;38.60;28.30;;;7.50;99.90;;;;;;5021061;28;20470;-63
2024/01/01 00:43:57;;;;;;;34.73;27.40;;;7.50;99.90;;;;;;5021061;28;20456;-63
2024/01/01 00:46:27;;;;;;;35.20;26.90;;;7.50;99.90;;;;;;5020088;28;20541;-64
2024/01/01 00:48:54;;;;;;;32.27;24.97;;;7.50;1.00;;;;;;5018150;28;20495;-63
2024/01/01 00:51:23;;;;;;;31.37;24.43;;;7.50;1.00;;;;;;5018270;28;20472;-63
2024/01/01 00:53:52;;;;;;;32.33;24.23;;;7.50;1.00;;;;;;5018352;28;20983;-65
2024/01/01 00:56:19;;;;;;;33.33;22.73;;;7.40;1.00;;;;;;5019373;28;20486;-65
2024/01/01 00:58:46;;;;;;;27.77;22.50;;;7.40;15.10;;;;;;5019984;28;20470;-63
2024/01/01 01:01:13;;;;;;;33.43;21.50;;;7.40;99.90;;;;;;5020297;28;20941;-64
2024/01/01 01:03:41;;;;;;;35.30;20.90;;;7.50;77.90;;;;;;5020533;28;20495;-63
2024/01/01 01:06:08;;;;;;;27.87;20.03;;;7.50;76.80;;;;;;5021150;28;20786;-64
2024/01/01 01:08:37;;;;;;;30.63;21.57;;;7.50;80.50;;;;;;5020146;28;20555;-63
2024/01/01 01:11:04;;;;;;;29.40;19.37;;;7.50;80.00;;;;;;5020520;28;20463;-63
2024/01/01 01:13:32;;;;;;;25.83;18.17;;;7.50;76.80;;;;;;5019915;28;20867;-63
2024/01/01 01:15:59;;;;;;;26.23;16.60;;;7.50;99.90;;;;;;5020424;28;20554;-63
2024/01/01 01:18:26;;;;;;;25.93;16.90;;;7.50;99.90;;;;;;5020491;28;20462;-62
2024/01/01 01:20:53;;;;;;;27.70;17.50;;;7.50;34.80;;;;;;5020017;28;20748;-63
2024/01/01 01:23:21;;;;;;;20.47;14.63;;;7.60;99.90;;;;;;5019547;28;20487;-63
2024/01/01 01:25:52;;;;;;;21.97;14.10;;;7.60;84.70;;;;;;5019752;28;20498;-63
2024/01/01 01:28:23;;;;;;;24.17;15.30;;;7.60;1.00;;;;;;5020282;28;20812;-63
2024/01/01 01:30:50;;;;;;;22.00;13.70;;;7.60;8.80;;;;;;5020278;28;20464;-62
2024/01/01 01:33:18;;;;;;;18.73;13.13;;;7.60;8.50;;;;;;5019522;28;20446;-62
2024/01/01 01:35:45;;;;;;;17.53;12.40;;;7.60;51.90;;;;;;5020094;28;20439;-62
2024/01/01 01:38:12;;;;;;;16.60;11.70;;;7.60;41.90;;;;;;5019976;28;20896;-62
2024/01/01 01:40:39;;;;;;;16.70;11.07;;;7.50;5.90;;;;;;5020116;28;20462;-64
2024/01/01 01:43:21;;;;;;;15.43;10.90;;;7.60;29.70;;;;;;5019553;28;20459;-62
2024/01/01 01:45:50;;;;;;;18.07;10.60;;;7.60;59.90;;;;;;5019131;28;20459;-62
2024/01/01 01:48:18;;;;;;;14.40;10.07;;;7.60;2.40;;;;;;5018832;28;20460;-63
2024/01/01 01:50:45;;;;;;;17.60;10.00;;;7.50;77.70;;;;;;5019499;28;20482;-63
2024/01/01 01:53:14;;;;;;;19.87;8.73;;;7.50;99.90;;;;;;5018959;28;20968;-62
2024/01/01 01:55:43;;;;;;;11.50;7.70;;;7.50;47.60;;;;;;5019071;28;20452;-61
2024/01/01 01:58:10;;;;;;;15.13;8.00;;;7.50;1.00;;;;;;5019873;28;20463;-62
2024/01/01 02:00:39;;;;;;;11.83;7.00;;;7.50;6.40;;;;;;5019072;28;20457;-63
2024/01/01 02:03:08;;;;;;;11.20;6.63;;;7.50;99.90;;;;;;5019712;28;20514;-62
2024/01/01 02:05:35;;;;;;;13.07;7.70;;;7.50;70.20;;;;;;5019499;28;20798;-62
2024/01/01 02:08:03;;;;;;;13.17;6.00;;;7.50;94.90;;;;;;5018384;28;20478;-62
2024/01/01 02:10:30;;;;;;;9.23;4.83;;;7.50;8.20;;;;;;5017647;28;20456;-62
2024/01/01 02:12:57;;;;;;;14.33;5.90;;;7.60;13.60;;;;;;5018425;28;20908;-62
2024/01/01 02:15:24;;;;;;;9.77;5.20;;;7.50;1.00;;;;;;5018450;28;20975;-61
2024/01/01 02:17:53;;;;;;;12.93;4.90;;;7.50;52.30;;;;;;5018417;28;20554;-62
2024/01/01 02:20:21;;;;;;;7.50;5.07;;;7.50;1.10;;;;;;5018423;28;20814;-62
2024/01/01 02:22:49;;;;;;;12.33;4.50;;;7.50;1.20;;;;;;5018395;28;20582;-62
2024/01/01 02:25:19;;;;;;;9.80;4.20;;;7.50;1.00;;;;;;5019103;28;20913;-63
2024/01/01 02:27:46;;;;;;;15.03;5.50;;;7.50;44.30;;;;;;5019339;28;20556;-62
2024/01/01 02:30:13;;;;;;;7.40;3.60;;;7.50;29.70;;;;;;5015263;28;20477;-64
2024/01/01 02:32:41;;;;;;;10.03;3.07;;;7.50;99.90;;;;;;5014112;28;20713;-65
2024/01/01 02:35:08;;;;;;;8.43;4.43;;;7.50;99.90;;;;;;5018639;28;20496;-65
2024/01/01 02:37:36;;;;;;;8.20;3.83;;;7.40;99.90;;;;;;5017950;28;20488;-67
2024/01/01 02:40:03;;;;;;;9.50;3.97;;;7.40;99.90;;;;;;5018500;28;20464;-71
2024/01/01 02:42:32;;;;;;;8.90;3.70;;;7.20;99.90;;;;;;5021100;28;20460;-71
2024/01/01 02:44:59;;;;;;;13.50;3.67;;;7.10;99.90;;;;;;5020091;28;20491;-74
2024/01/01 02:47:27;;;;;;;10.13;4.13;;;7.00;1.00;;;;;;5020345;28;20448;-68
2024/01/01 02:49:55;;;;;;;11.50;3.63;;;6.90;1.00;;;;;;5019371;28;20563;-65
2024/01/01 02:52:22;;;;;;;7.87;3.30;;;6.80;1.00;;;;;;5019346;28;20464;-65
2024/01/01 02:54:49;;;;;;;7.90;3.30;;;6.80;1.00;;;;;;5018138;28;20979;-66
2024/01/01 02:57:16;;;;;;;7.00;2.87;;;6.60;99.90;;;;;;5018241;28;20470;-66
2024/01/01 02:59:45;;;;;;;7.33;3.03;;;6.50;99.90;;;;;;5017181;28;20961;-65
2024/01/01 03:02:13;;;;;;;11.53;3.37;;;6.40;1.00;;;;;;5017066;28;20758;-66
2024/01/01 03:04:40;;;;;;;7.43;2.80;;;6.40;1.00;;;;;;5016816;28;20500;-66
2024/01/01 03:07:08;;;;;;;9.37;3.63;;;6.30;99.90;;;;;;5016493;28;20435;-67
2024/01/01 03:09:35;;;;;;;8.23;3.13;;;6.30;99.90;;;;;;5017367;28;20456;-67
2024/01/01 03:12:02;;;;;;;8.40;2.90;;;6.20;99.90;;;;;;5017378;28;20474;-68
2024/01/01 03:14:29;;;;;;;10.97;3.70;;;6.20;99.90;;;;;;5018434;28;20757;-68
2024/01/01 03:16:58;;;;;;;8.67;3.20;;;6.20;99.90;;;;;;5018236;28;20464;-66
2024/01/01 03:19:25;;;;;;;6.90;2.80;;;6.20;1.00;;;;;;5017914;28;20430;-62
2024/01/01 03:21:52;;;;;;;13.07;5.17;;;6.20;99.90;;;;;;5018231;28;20460;-67
2024/01/01 03:24:19;;;;;;;9.57;5.20;;;6.20;1.00;;;;;;5017810;28;20487;-67
2024/01/01 03:26:47;;;;;;;10.40;4.40;;;6.20;1.00;;;;;;5017951;28;20460;-66
2024/01/01 03:29:16;;;;;;;10.90;4.27;;;6.20;1.00;;;;;;5017794;28;20464;-66
2024/01/01 03:31:44;;;;;;;8.47;3.37;;;6.20;99.90;;;;;;5017950;28;20435;-67
2024/01/01 03:34:13;;;;;;;13.40;4.50;;;6.20;99.90;;;;;;5017939;28;20503;-67
2024/01/01 03:36:40;;;;;;;15.07;5.63;;;6.10;99.90;;;;;;5017813;28;20492;-66
2024/01/01 03:39:08;;;;;;;12.03;4.53;;;6.20;99.90;;;;;;5017770;28;20753;-68
2024/01/01 03:41:35;;;;;;;13.67;4.17;;;6.20;99.90;;;;;;5018059;28;20464;-66
2024/01/01 03:44:02;;;;;;;10.30;3.57;;;6.20;99.90;;;;;;5018195;28;20460;-66
2024/01/01 03:46:30;;;;;;;10.97;3.80;;;6.20;99.90;;;;;;5018350;28;20464;-68
2024/01/01 03:48:57;;;;;;;12.60;4.27;;;6.20;99.90;;;;;;5017772;28;20518;-66
2024/01/01 03:51:26;;;;;;;11.00;3.53;;;6.20;99.90;;;;;;5017351;28;20491;-70
2024/01/01 03:53:59;;;;;;;16.13;4.53;;;6.20;99.90;;;;;;5017354;28;20470;-69
2024/01/01 03:56:26;;;;;;;14.77;3.60;;;6.20;99.90;;;;;;5019058;28;20468;-69
2024/01/01 03:58:53;;;;;;;13.27;4.90;;;6.20;99.90;;;;;;5019650;28;20475;-71
2024/01/01 04:01:21;;;;;;;14.77;3.73;;;6.20;99.90;;;;;;5018989;28;20893;-71
2024/01/01 04:03:48;;;;;;;11.37;4.60;;;6.20;99.90;;;;;;5019945;28;20475;-75
2024/01/01 04:06:16;;;;;;;11.67;3.93;;;6.20;99.90;;;;;;5021493;28;20706;-70
2024/01/01 04:08:44;;;;;;;11.27;3.60;;;6.20;99.90;;;;;;5020473;28;20483;-70
2024/01/01 04:11:11;;;;;;;12.70;3.53;;;6.30;99.90;;;;;;5021824;28;20527;-71
2024/01/01 04:13:38;;;;;;;14.57;3.93;;;6.30;99.90;;;;;;5016844;28;20468;-68
2024/01/01 04:16:08;;;;;;;14.13;4.00;;;6.30;99.90;;;;;;5016658;28;20491;-67
2024/01/01 04:18:35;;;;;;;13.23;5.10;;;6.40;97.70;;;;;;5017068;28;20492;-67
2024/01/01 04:21:02;;;;;;;17.03;4.10;;;6.40;99.90;;;;;;5017114;28;20778;-70
2024/01/01 04:23:31;;;;;;;9.77;3.63;;;6.40;46.50;;;;;;5016451;28;20938;-69
2024/01/01 04:25:59;;;;;;;10.50;5.00;;;6.40;60.50;;;;;;5017664;28;20739;-67
2024/01/01 04:28:27;;;;;;;11.63;4.43;;;6.40;99.90;;;;;;5015845;28;20471;-69
2024/01/01 04:30:54;;;;;;;13.60;4.17;;;6.40;99.90;;;;;;5000919;28;20464;-70
2024/01/01 04:33:21;;;;;;;12.80;4.63;;;6.40;99.90;;;;;;5022789;28;20460;-69
2024/01/01 04:35:48;;;;;;;14.10;4.17;;;6.40;1.00;;;;;;5021416;28;20957;-71
2024/01/01 04:38:16;;;;;;;18.47;4.30;;;6.40;1.00;;;;;;5024299;28;20464;-71
2024/01/01 04:40:43;;;;;;;15.10;4.60;;;6.40;99.90;;;;;;5010708;28;20527;-70
2024/01/01 04:43:11;;;;;;;10.57;4.50;;;6.40;99.90;;;;;;5004502;28;20843;-71
2024/01/01 04:45:38;;;;;;;12.17;4.73;;;6.50;1.00;;;;;;5008344;28;20458;-68
2024/01/01 04:48:06;;;;;;;13.70;4.20;;;6.50;1.00;;;;;;5017815;28;20467;-70
2024/01/01 04:50:34;;;;;;;20.50;4.97;;;6.50;99.90;;;;;;5024070;28;20543;-70
2024/01/01 04:53:01;;;;;;;14.13;4.00;;;6.50;99.90;;;;;;5022593;28;20473;-66
2024/01/01 04:55:28;;;;;;;16.27;4.27;;;6.50;99.90;;;;;;5021350;28;20590;-70
2024/01/01 04:57:55;;;;;;;17.60;4.43;;;6.60;99.90;;;;;;5021281;28;20529;-71
2024/01/01 05:00:24;;;;;;;15.67;4.97;;;6.60;99.90;;;;;;5019135;28;20460;-71
2024/01/01 05:02:53;;;;;;;11.97;4.43;;;6.60;99.90;;;;;;5006793;28;20456;-73
2024/01/01 05:05:21;;;;;;;18.30;5.33;;;6.60;99.90;;;;;;5006374;28;20459;-73
2024/01/01 05:07:48;;;;;;;29.83;6.03;;;6.60;99.90;;;;;;5006508;28;20457;-72
2024/01/01 05:10:15;;;;;;;17.70;4.97;;;6.70;99.90;;;;;;5011817;28;20484;-68
2024/01/01 05:12:43;;;;;;;18.37;4.60;;;6.70;99.90;;;;;;5010023;28;20456;-71
2024/01/01 05:15:13;;;;;;;16.13;4.00;;;6.70;99.90;;;;;;5007131;28;20480;-72
2024/01/01 05:17:41;;;;;;;16.50;4.23;;;6.70;99.90;;;;;;5009186;28;20463;-72
2024/01/01 05:20:09;;;;;;;11.50;3.97;;;6.80;99.90;;;;;;5017380;28;20881;-71
2024/01/01 05:22:36;;;;;;;16.00;4.40;;;6.80;99.90;;;;;;5008140;28;20463;-71
2024/01/01 05:25:04;;;;;;;12.20;3.70;;;6.80;99.90;;;;;;4998330;28;20432;-70
2024/01/01 05:27:31;;;;;;;17.33;4.43;;;6.90;99.90;;;;;;5010737;28;20773;-72
2024/01/01 05:29:58;;;;;;;10.93;3.93;;;6.80;99.90;;;;;;5006180;28;20463;-70
2024/01/01 05:32:25;;;;;;;13.70;3.67;;;6.90;99.90;;;;;;5007433;28;20924;-67
2024/01/01 05:34:54;;;;;;;14.93;3.63;;;6.90;99.90;;;;;;4998783;28;20780;-74
2024/01/01 05:37:21;;;;;;;12.13;3.83;;;6.90;99.90;;;;;;5003904;28;20779;-69
2024/01/01 05:39:48;;;;;;;13.93;5.17;;;6.90;99.90;;;;;;5004022;28;20474;-68
2024/01/01 05:42:16;;;;;;;18.43;4.13;;;6.90;99.90;;;;;;5005216;28;20890;-68
2024/01/01 05:44:43;;;;;;;12.47;3.57;;;7.00;99.90;;;;;;5011508;28;20456;-68
2024/01/01 05:47:10;;;;;;;16.57;4.00;;;6.90;99.90;;;;;;5016265;28;20461;-67
2024/01/01 05:49:37;;;;;;;17.43;5.20;;;7.00;99.90;;;;;;5000777;28;20463;-65
2024/01/01 05:52:06;;;;;;;14.37;3.70;;;7.00;95.70;;;;;;5006156;28;20473;-68
2024/01/01 05:54:33;;;;;;;17.57;5.50;;;7.00;40.40;;;;;;5018246;28;20466;-70
2024/01/01 05:57:00;;;;;;;10.43;4.30;;;7.00;22.10;;;;;;5011006;28;20452;-68
2024/01/01 05:59:27;;;;;;;16.20;4.47;;;7.00;1.00;;;;;;5000429;28;20608;-67
2024/01/01 06:01:54;;;;;;;15.27;3.47;;;7.10;1.00;;;;;;4998335;28;20465;-68
2024/01/01 06:04:21;;;;;;;12.63;3.83;;;7.00;1.00;;;;;;5000823;28;20472;-67
2024/01/01 06:06:49;;;;;;;13.43;4.20;;;7.00;1.00;;;;;;5007443;28;20455;-70
2024/01/01 06:09:18;;;;;;;22.43;4.73;;;7.10;1.00;;;;;;5013206;28;20763;-67
2024/01/01 06:11:45;;;;;;;14.33;4.17;;;7.10;1.00;;;;;;5010571;28;20472;-69
2024/01/01 06:14:14;;;;;;;15.67;5.57;;;7.10;1.00;;;;;;5003792;28;20543;-67
2024/01/01 06:16:43;;;;;;;13.17;4.87;;;7.10;1.00;;;;;;5017360;28;20553;-67
2024/01/01 06:19:10;;;;;;;14.87;4.53;;;7.10;1.00;;;;;;5017465;28;20480;-66
2024/01/01 06:21:37;;;;;;;19.40;4.40;;;7.10;1.00;;;;;;5018225;28;20552;-66
2024/01/01 06:24:05;;;;;;;14.73;4.77;;;7.10;1.00;;;;;;5017093;28;20484;-67
2024/01/01 06:26:34;;;;;;;9.07;3.50;;;7.10;1.00;;;;;;5017550;28;20459;-67
2024/01/01 06:29:01;;;;;;;13.07;4.43;;;7.10;1.00;;;;;;5017383;28;20467;-66
2024/01/01 06:31:28;;;;;;;14.00;4.80;;;7.20;1.00;;;;;;5017191;28;20562;-68
2024/01/01 06:33:55;;;;;;;15.90;3.57;;;7.20;99.90;;;;;;5017581;28;20894;-67
2024/01/01 06:36:23;;;;;;;10.43;3.90;;;7.20;99.90;;;;;;5017500;28;20492;-66
2024/01/01 06:38:50;;;;;;;12.17;3.80;;;7.20;99.90;;;;;;5018573;28;20482;-66
2024/01/01 06:41:17;;;;;;;13.43;4.33;;;7.20;99.90;;;;;;5018727;28;20460;-65
2024/01/01 06:43:46;;;;;;;8.40;4.23;;;7.20;99.90;;;;;;5019016;28;20913;-68
2024/01/01 06:46:13;;;;;;;11.60;4.30;;;7.20;99.90;;;;;;5018345;28;20815;-67
2024/01/01 06:48:40;;;;;;;12.20;3.90;;;7.20;99.90;;;;;;5018476;28;20467;-66
2024/01/01 06:51:11;;;;;;;14.90;4.77;;;7.20;99.90;;;;;;5018866;28;20460;-66
2024/01/01 06:53:38;;;;;;;12.83;3.50;;;7.20;99.90;;;;;;5018700;28;20456;-65
2024/01/01 06:56:06;;;;;;;11.40;4.17;;;7.20;99.90;;;;;;5018493;28;20532;-68
2024/01/01 06:58:33;;;;;;;12.33;4.23;;;7.20;1.00;;;;;;5018521;28;20462;-66
2024/01/01 07:01:02;;;;;;;15.03;4.50;;;7.20;99.90;;;;;;5017943;28;20467;-67
2024/01/01 07:03:32;;;;;;;13.43;4.33;;;7.20;1.00;;;;;;5018750;28;20471;-68
2024/01/01 07:06:00;;;;;;;8.97;3.70;;;7.20;1.00;;;;;;5020728;28;20529;-67
2024/01/01 07:08:27;;;;;;;10.67;3.67;;;7.10;1.00;;;;;;5019986;28;20518;-69
2024/01/01 07:10:54;;;;;;;12.70;3.90;;;7.00;23.60;;;;;;5018114;28;20472;-70
2024/01/01 07:13:21;;;;;;;9.37;3.80;;;6.90;72.20;;;;;;5017897;28;20466;-64
2024/01/01 07:15:48;;;;;;;14.50;3.87;;;6.90;99.90;;;;;;5018481;28;20488;-68
2024/01/01 07:18:17;;;;;;;12.67;3.90;;;6.80;99.90;;;;;;5018648;28;20464;-69
2024/01/01 07:20:45;;;;;;;11.80;4.30;;;6.70;99.90;;;;;;5018177;28;20434;-66
2024/01/01 07:23:12;;;;;;;12.20;4.07;;;6.60;99.90;;;;;;5017618;28;20522;-66
2024/01/01 07:25:39;;;;;;;11.87;4.10;;;6.60;1.00;;;;;;5017938;28;20459;-66
2024/01/01 07:28:07;;;;;;;12.90;4.83;;;6.50;1.00;;;;;;5018212;28;20470;-66
2024/01/01 07:30:35;;;;;;;13.57;4.60;;;6.50;1.00;;;;;;5017985;28;20777;-66
2024/01/01 07:33:03;;;;;;;10.30;3.67;;;6.50;1.00;;;;;;5017014;28;20486;-66
2024/01/01 07:35:31;;;;;;;9.07;3.27;;;6.40;1.00;;;;;;5017809;28;20492;-66
2024/01/01 07:37:59;;;;;;;12.40;4.30;;;6.40;1.00;;;;;;5018143;28;20563;-66
2024/01/01 07:40:26;;;;;;;13.80;3.70;;;6.40;1.00;;;;;;5017790;28;20460;-69
2024/01/01 07:42:53;;;;;;;12.80;4.43;;;6.40;1.00;;;;;;5017786;28;20470;-67
2024/01/01 07:45:22;;;;;;;8.17;3.67;;;6.40;1.00;;;;;;5017759;28;20463;-68
2024/01/01 07:47:49;;;;;;;10.30;4.30;;;6.40;1.00;;;;;;5017777;28;20960;-68
2024/01/01 07:50:16;;;;;;;17.33;4.90;;;6.40;1.00;;;;;;5018229;28;20507;-67
2024/01/01 07:52:45;;;;;;;10.00;3.60;;;6.40;1.00;;;;;;5017687;28;20510;-70
2024/01/01 07:55:12;;;;;;;12.37;4.50;;;6.40;1.00;;;;;;5017623;28;20463;-69
2024/01/01 07:57:39;;;;;;;19.10;4.97;;;6.30;1.00;;;;;;5018409;28;20944;-67
2024/01/01 08:00:09;;;;;;;10.90;4.80;;;6.40;1.00;;;;;;5018157;28;20467;-67
2024/01/01 08:02:37;;;;;;;9.30;3.77;;;6.30;1.00;;;;;;5017357;28;20478;-68
2024/01/01 08:05:04;;;;;;;13.33;4.57;;;6.40;1.00;;;;;;5017584;28;20529;-67
2024/01/01 08:07:31;;;;;;;10.10;3.73;;;6.30;1.00;;;;;;5017297;28;20558;-68
2024/01/01 08:10:00;;;;;;;7.43;2.83;;;6.30;1.00;;;;;;5017648;28;20566;-67
2024/01/01 08:12:27;;;;;;;11.67;3.40;;;6.30;1.00;;;;;;5017653;28;20478;-68
2024/01/01 08:14:55;;;;;;;9.03;3.73;;;6.30;1.00;;;;;;5017990;28;20464;-67
2024/01/01 08:17:22;;;;;;;9.47;3.10;;;6.40;1.00;;;;;;5017992;28;20503;-68
2024/01/01 08:19:52;;;;;;;12.33;3.73;;;6.40;1.00;;;;;;5018580;28;20464;-70
2024/01/01 08:22:19;;;;;;;13.53;2.93;;;6.30;1.00;;;;;;5018123;28;20790;-69
2024/01/01 08:24:46;;;;;;;6.70;2.40;;;6.40;1.00;;;;;;5018291;28;20487;-67
2024/01/01 08:27:15;;;;;;;11.60;3.23;;;6.40;1.00;;;;;;5018813;28;20459;-69
2024/01/01 08:29:43;;;;;;;9.43;2.93;;;6.40;1.00;;;;;;5018912;28;20470;-67
2024/01/01 08:32:10;;;;;;;7.97;3.37;;;6.40;1.00;;;;;;5019499;28;20536;-68
2024/01/01 08:34:37;;;;;;;7.87;3.00;;;6.40;1.00;;;;;;5018261;28;20463;-70
2024/01/01 08:37:05;;;;;;;6.27;2.97;;;6.40;1.00;;;;;;5019741;28;20500;-67
2024/01/01 08:39:32;;;;;;;7.23;3.00;;;6.40;1.00;;;;;;5021349;28;20463;-69
2024/01/01 08:41:59;;;;;;;13.87;3.37;;;6.30;1.00;;;;;;5022810;28;20456;-68
2024/01/01 08:44:27;;;;;;;7.27;2.73;;;6.40;1.00;;;;;;5026950;28;20535;-69
2024/01/01 08:46:54;;;;;;;9.57;2.60;;;6.40;1.00;;;;;;5027513;28;20434;-67
2024/01/01 08:49:22;;;;;;;6.00;2.50;;;6.40;1.00;;;;;;5027638;28;20567;-69
2024/01/01 08:51:49;;;;;;;7.23;2.50;;;6.40;1.00;;;;;;5025403;28;20464;-70
2024/01/01 08:54:16;;;;;;;4.43;2.60;;;6.30;1.00;;;;;;5021715;28;20464;-68
2024/01/01 08:56:44;;;;;;;6.70;2.83;;;6.30;1.00;;;;;;5020998;28;20775;-67
2024/01/01 08:59:12;;;;;;;6.07;2.30;;;6.30;1.00;;;;;;5020948;28;20460;-66
2024/01/01 09:01:44;;;;;;;9.00;2.80;;;6.30;1.00;;;;;;5020826;28;20464;-67
2024/01/01 09:04:11;;;;;;;9.37;3.27;;;6.30;1.00;;;;;;5020835;28;20464;-68
2024/01/01 09:06:38;;;;;;;11.37;3.20;;;6.30;1.00;;;;;;5020850;28;20460;-67
2024/01/01 09:09:08;;;;;;;7.73;2.57;;;6.20;1.00;;;;;;5022158;28;20513;-67
2024/01/01 09:11:35;;;;;;;7.83;3.13;;;6.30;1.00;;;;;;5022298;28;20464;-69
2024/01/01 09:14:02;;;;;;;6.63;2.43;;;6.20;1.00;;;;;;5026910;28;20507;-69
2024/01/01 09:16:31;;;;;;;6.00;2.70;;;6.30;1.00;;;;;;5027466;28;20492;-66
2024/01/01 09:19:00;;;;;;;7.57;2.60;;;6.20;1.00;;;;;;5028179;28;20443;-67
2024/01/01 09:21:27;;;;;;;7.60;3.10;;;6.30;1.00;;;;;;5029067;28;20460;-68
2024/01/01 09:24:00;;;;;;;4.93;2.23;;;6.30;1.00;;;;;;5030116;28;20499;-69
2024/01/01 09:26:27;;;;;;;5.80;2.70;;;6.30;1.00;;;;;;5030016;28;20464;-70
2024/01/01 09:28:55;;;;;;;7.50;2.63;;;6.30;1.00;;;;;;5030859;28;20527;-67
2024/01/01 09:31:22;;;;;;;8.67;2.47;;;6.30;1.00;;;;;;5031545;28;20527;-70
2024/01/01 09:33:49;;;;;;;6.60;2.70;;;6.40;1.00;;;;;;5026625;28;20483;-68
2024/01/01 09:36:19;;;;;;;6.53;2.20;;;6.40;1.00;;;;;;5026649;28;20520;-71
2024/01/01 09:38:46;;;;;;;9.30;3.17;;;6.40;1.00;;;;;;5028224;28;20468;-70
2024/01/01 09:41:13;;;;;;;7.10;2.63;;;6.40;1.00;;;;;;5023963;28;20570;-70
2024/01/01 09:43:42;;;;;;;6.97;3.10;;;6.40;1.00;;;;;;5025246;28;20468;-71
2024/01/01 09:46:10;;;;;;;10.73;2.90;;;6.50;1.00;;;;;;5024857;28;20464;-67
2024/01/01 09:48:37;;;;;;;5.50;2.60;;;6.50;1.00;;;;;;5020157;28;20463;-67
2024/01/01 09:51:05;;;;;;;6.07;2.50;;;6.40;1.00;;;;;;5008702;28;20563;-66
2024/01/01 09:53:37;;;;;;;7.67;2.73;;;6.40;1.00;;;;;;4999871;28;20468;-67
2024/01/01 09:56:05;;;;;;;7.40;2.83;;;6.40;1.00;;;;;;4999976;28;20504;-66
2024/01/01 09:58:41;;;;;;;5.23;2.50;;;6.40;1.00;;;;;;5000486;28;20495;-67
2024/01/01 10:01:13;;;;;;;7.47;2.90;;;6.40;1.00;;;;;;5000504;28;20469;-69
2024/01/01 10:03:41;;;;;;;8.97;3.97;;;6.40;1.00;;;;;;5000752;28;20461;-67
2024/01/01 10:06:09;;;;;;;5.83;3.00;;;6.40;1.00;;;;;;5001276;28;20472;-68
2024/01/01 10:08:38;;;;;;;7.33;3.57;;;6.40;1.00;;;;;;5002159;28;20463;-67
2024/01/01 10:11:18;;;;;;;9.80;3.53;;;6.40;1.00;;;;;;5002246;28;20870;-67
2024/01/01 10:13:46;;;;;;;9.00;3.13;;;6.40;1.00;;;;;;5000375;28;20465;-66
2024/01/01 10:16:25;;;;;;;8.93;3.20;;;6.40;1.00;;;;;;4999658;28;20472;-68
2024/01/01 10:18:56;;;;;;;4.03;2.40;;;6.50;1.00;;;;;;4999653;28;20460;-68
2024/01/01 10:21:28;;;;;;;5.07;2.57;;;6.40;1.00;;;;;;5000701;28;20461;-69
2024/01/01 10:23:57;;;;;;;7.23;2.53;;;6.50;1.00;;;;;;5001451;28;20489;-69
2024/01/01 10:26:24;;;;;;;8.00;2.97;;;6.50;1.00;;;;;;5003501;28;20457;-69
2024/01/01 10:28:52;;;;;;;4.90;3.30;;;6.50;1.00;;;;;;5008858;28;20487;-69
2024/01/01 10:31:19;;;;;;;5.47;2.83;;;6.50;1.00;;;;;;5008632;28;20464;-73
2024/01/01 10:33:50;;;;;;;6.57;2.93;;;6.60;1.00;;;;;;5008534;28;20461;-68
2024/01/01 10:36:19;;;;;;;6.20;3.27;;;6.60;1.00;;;;;;5009686;28;20470;-64
2024/01/01 10:38:49;;;;;;;6.40;2.90;;;6.60;1.00;;;;;;5006315;28;20485;-70
2024/01/01 10:41:18;;;;;;;11.10;3.73;;;6.60;1.00;;;;;;5006767;28;20465;-72
2024/01/01 10:43:47;;;;;;;6.10;3.43;;;6.70;1.00;;;;;;5002862;28;20468;-74
2024/01/01 10:46:14;;;;;;;5.00;2.83;;;6.70;1.00;;;;;;5001691;28;20464;-74
2024/01/01 10:48:44;;;;;;;8.23;3.13;;;6.70;1.00;;;;;;5014623;28;20476;-70
2024/01/01 10:51:32;;;;;;;7.43;3.30;;;6.80;1.00;;;;;;5000566;28;20447;-70
2024/01/01 10:54:25;;;;;;;7.30;2.83;;;6.80;1.00;;;;;;4999681;28;20461;-69
2024/01/01 10:57:08;;;;;;;8.13;3.80;;;6.80;1.00;;;;;;4992349;28;20599;-68
2024/01/01 10:59:45;;;;;;;6.13;3.00;;;6.90;1.00;;;;;;4999240;28;20968;-70
2024/01/01 11:02:12;;;;;;;8.60;3.47;;;6.80;1.00;;;;;;4999192;28;20812;-67
2024/01/01 11:04:39;;;;;;;9.63;2.73;;;6.80;1.00;;;;;;4998831;28;20966;-71
2024/01/01 11:07:06;;;;;;;9.13;3.00;;;6.70;1.00;;;;;;4997640;28;20544;-69
2024/01/01 11:09:37;;;;;;;8.37;3.20;;;6.80;1.00;;;;;;4998840;28;20879;-68
2024/01/01 11:12:07;;;;;;;6.90;2.97;;;6.80;1.00;;;;;;4998535;28;20804;-67
2024/01/01 11:14:38;;;;;;;7.27;3.00;;;6.80;1.00;;;;;;4998959;28;20516;-67
2024/01/01 11:17:06;;;;;;;7.90;2.90;;;6.80;1.00;;;;;;4998660;28;20535;-67
2024/01/01 11:19:41;;;;;;;8.07;3.90;;;6.80;1.00;;;;;;4998608;28;20789;-67
2024/01/01 11:22:30;;;;;;;6.13;3.13;;;6.90;1.00;;;;;;4998687;28;20439;-67
2024/01/01 11:24:59;;;;;;;10.00;3.00;;;6.90;1.00;;;;;;4998399;28;20583;-67
2024/01/01 11:27:29;;;;;;;11.43;3.60;;;6.90;1.00;;;;;;4997812;28;20464;-67
2024/01/01 11:30:02;;;;;;;8.07;2.80;;;6.90;99.90;;;;;;4998402;28;20497;-66
2024/01/01 11:32:29;;;;;;;8.30;3.50;;;7.00;1.00;;;;;;4998927;28;20439;-67
2024/01/01 11:35:11;;;;;;;7.63;3.07;;;7.00;99.90;;;;;;4998174;28;20556;-67
2024/01/01 11:37:41;;;;;;;9.73;3.27;;;7.10;99.90;;;;;;4996710;28;20814;-66
2024/01/01 11:40:10;;;;;;;7.70;3.40;;;7.20;99.90;;;;;;4997525;28;20488;-67
2024/01/01 11:42:40;;;;;;;8.80;3.07;;;7.20;99.90;;;;;;4996852;28;20757;-66
2024/01/01 11:45:08;;;;;;;8.70;3.40;;;7.30;99.90;;;;;;4999091;28;20445;-69
2024/01/01 11:47:36;;;;;;;8.63;3.27;;;7.30;99.90;;;;;;5015019;28;20464;-66
2024/01/01 11:50:04;;;;;;;11.17;2.80;;;7.30;99.90;;;;;;5016090;28;20460;-66
2024/01/01 11:52:31;;;;;;;10.60;4.23;;;7.30;99.90;;;;;;5017919;28;20476;-66
2024/01/01 11:54:59;;;;;;;11.50;3.90;;;7.30;99.90;;;;;;5016852;28;20562;-66
2024/01/01 11:57:26;;;;;;;10.13;3.47;;;7.40;99.90;;;;;;5015684;28;20884;-66
2024/01/01 11:59:56;;;;;;;13.37;4.20;;;7.60;99.90;;;;;;5017515;28;20946;-69
2024/01/01 12:02:24;;;;;;;12.40;4.40;;;7.70;99.90;;;;;;5017683;28;20948;-67
2024/01/01 12:04:52;;;;;;;8.30;4.10;;;7.70;99.90;;;;;;5016479;28;20460;-62
2024/01/01 12:07:30;;;;;;;12.47;4.03;;;7.70;99.90;;;;;;5015993;28;20817;-65
2024/01/01 12:10:08;;;;;;;14.77;4.90;;;7.70;99.90;;;;;;5016080;28;20447;-66
2024/01/01 12:12:39;;;;;;;9.43;4.17;;;7.60;99.90;;;;;;5014276;28;20456;-72
2024/01/01 12:15:12;;;;;;;15.37;5.33;;;7.60;99.90;;;;;;5014525;28;20772;-71
2024/01/01 12:17:44;;;;;;;12.83;4.50;;;7.60;99.90;;;;;;5015009;28;20796;-66
2024/01/01 12:20:18;;;;;;;15.93;6.13;;;7.60;99.90;;;;;;4998226;28;20763;-66
2024/01/01 12:22:48;;;;;;;14.43;4.73;;;7.60;99.90;;;;;;4998087;28;20473;-72
2024/01/01 12:25:16;;;;;;;11.03;3.87;;;7.70;99.90;;;;;;4999564;28;20543;-66
2024/01/01 12:27:44;;;;;;;10.23;3.60;;;7.60;99.90;;;;;;4999369;28;20956;-66
2024/01/01 12:30:34;;;;;;;9.43;3.33;;;7.60;99.90;;;;;;5000045;28;20457;-66
2024/01/01 12:33:07;;;;;;;10.27;3.07;;;7.50;99.90;;;;;;4999989;28;20472;-66
2024/01/01 12:35:35;;;;;;;8.50;3.43;;;7.50;99.90;;;;;;4999544;28;20452;-67
2024/01/01 12:38:02;;;;;;;8.73;3.47;;;7.60;99.90;;;;;;5001535;28;20497;-69
2024/01/01 12:40:30;;;;;;;13.50;4.53;;;7.50;99.90;;;;;;5001613;28;20467;-66
2024/01/01 12:42:57;;;;;;;9.50;3.00;;;7.50;99.90;;;;;;5001066;28;20469;-66
2024/01/01 12:45:29;;;;;;;6.13;2.90;;;7.60;99.90;;;;;;5000901;28;20563;-66
2024/01/01 12:48:01;;;;;;;10.83;4.40;;;7.70;99.90;;;;;;5000635;28;20515;-65
2024/01/01 12:50:28;;;;;;;12.47;3.20;;;7.70;99.90;;;;;;5001307;28;20472;-69
2024/01/01 12:52:55;;;;;;;12.40;3.73;;;7.70;99.90;;;;;;5001079;28;20470;-65
2024/01/01 12:55:23;;;;;;;11.83;4.10;;;7.70;99.90;;;;;;5000974;28;20465;-65
2024/01/01 12:57:50;;;;;;;7.83;3.80;;;7.70;99.90;;;;;;5000982;28;20507;-65
2024/01/01 13:00:18;;;;;;;8.93;2.93;;;7.70;99.90;;;;;;5001158;28;20465;-63